createdAt,value
2022-09-14T00:01:25.915Z,99965.09
2022-09-14T00:04:01.337Z,99959.66
2022-09-14T00:06:28.813Z,99959.22
2022-09-14T00:08:58.088Z,99958.25
2022-09-14T00:11:27.432Z,99953.72
2022-09-14T00:13:54.838Z,99955.13
2022-09-14T00:16:25.249Z,99950.28
2022-09-14T00:19:06.308Z,99946.00
2022-09-14T00:21:34.885Z,99946.47
2022-09-14T00:24:01.496Z,99947.28
2022-09-14T00:26:27.948Z,99941.66
2022-09-14T00:28:57.666Z,99947.28
2022-09-14T00:31:25.753Z,99945.00
2022-09-14T00:33:53.368Z,99951.25
2022-09-14T00:36:25.268Z,99947.66
2022-09-14T00:38:52.133Z,99945.81
2022-09-14T00:41:21.965Z,99943.97
2022-09-14T00:44:01.678Z,99947.81
2022-09-14T00:46:38.652Z,99946.44
2022-09-14T00:49:12.976Z,99941.16
2022-09-14T00:51:45.488Z,99943.75
2022-09-14T00:54:12.150Z,99941.22
2022-09-14T00:56:38.541Z,99936.38
2022-09-14T00:59:21.922Z,99939.88
2022-09-14T01:01:48.985Z,99933.91
2022-09-14T01:04:15.438Z,99931.38
2022-09-14T01:07:14.735Z,99931.69
2022-09-14T01:09:46.646Z,99920.72
2022-09-14T01:12:24.745Z,99922.88
2022-09-14T01:14:55.103Z,99920.97
2022-09-14T01:17:32.132Z,99922.13
2022-09-14T01:20:10.997Z,99921.44
2022-09-14T01:22:52.718Z,99926.91
2022-09-14T01:25:37.533Z,99922.72
2022-09-14T01:28:15.046Z,99915.94
2022-09-14T01:30:44.108Z,99923.09
2022-09-14T01:33:19.307Z,99918.94
2022-09-14T01:35:52.713Z,99921.03
2022-09-14T01:38:26.523Z,99921.91
2022-09-14T01:40:54.469Z,99924.44
2022-09-14T01:43:26.763Z,99933.31
2022-09-14T01:46:00.919Z,99915.94
2022-09-14T01:48:33.593Z,99927.94
2022-09-14T01:51:04.468Z,99924.31
2022-09-14T01:53:37.735Z,99926.59
2022-09-14T01:56:10.946Z,99934.31
2022-09-14T01:59:08.904Z,99926.22
2022-09-14T02:01:41.120Z,99927.06
2022-09-14T02:04:12.135Z,99923.94
2022-09-14T02:06:48.140Z,99919.16
2022-09-14T02:09:19.702Z,99914.31
2022-09-14T02:11:46.887Z,99913.06
2022-09-14T02:14:13.327Z,99909.88
2022-09-14T02:16:43.437Z,99908.03
2022-09-14T02:19:10.455Z,99901.00
2022-09-14T02:21:38.302Z,99890.00
2022-09-14T02:24:05.493Z,99897.66
2022-09-14T02:26:32.791Z,99887.78
2022-09-14T02:28:59.401Z,99888.31
2022-09-14T02:31:50.209Z,99895.22
2022-09-14T02:34:43.058Z,99897.19
2022-09-14T02:37:37.284Z,99896.75
2022-09-14T02:40:06.800Z,99903.81
2022-09-14T02:43:00.235Z,99902.69
2022-09-14T02:45:45.148Z,99902.56
2022-09-14T02:48:36.633Z,99900.44
2022-09-14T02:51:15.298Z,99909.97
2022-09-14T02:53:53.575Z,99902.53
2022-09-14T02:56:21.182Z,99907.81
2022-09-14T02:58:47.842Z,99905.97
2022-09-14T03:01:21.488Z,99900.59
2022-09-14T03:03:47.944Z,99897.66
2022-09-14T03:06:15.088Z,99886.81
2022-09-14T03:08:41.935Z,99884.25
2022-09-14T03:11:08.605Z,99871.56
2022-09-14T03:13:35.751Z,99873.25
2022-09-14T03:16:07.118Z,99885.94
2022-09-14T03:18:34.739Z,99866.53
2022-09-14T03:21:08.508Z,99858.16
2022-09-14T03:23:39.432Z,99870.88
2022-09-14T03:26:21.208Z,99883.84
2022-09-14T03:28:56.326Z,99877.41
2022-09-14T03:31:23.580Z,99875.56
2022-09-14T03:33:57.782Z,99873.03
2022-09-14T03:36:26.676Z,99867.38
2022-09-14T03:38:55.657Z,99861.63
2022-09-14T03:41:23.141Z,99869.38
2022-09-14T03:43:49.852Z,99864.88
2022-09-14T03:46:20.455Z,99864.31
2022-09-14T03:48:47.421Z,99859.78
2022-09-14T03:51:14.615Z,99850.63
2022-09-14T03:53:42.897Z,99855.44
2022-09-14T03:56:11.680Z,99851.41
2022-09-14T03:58:38.614Z,99853.50
2022-09-14T04:01:11.297Z,99850.25
2022-09-14T04:03:37.786Z,99850.69
2022-09-14T04:06:05.386Z,99850.28
2022-09-14T04:08:37.179Z,99846.84
2022-09-14T04:11:12.955Z,99834.97
2022-09-14T04:13:39.725Z,99835.78
2022-09-14T04:16:06.367Z,99832.03
2022-09-14T04:18:33.303Z,99829.34
2022-09-14T04:21:07.889Z,99832.25
2022-09-14T04:23:42.269Z,99823.16
2022-09-14T04:26:23.924Z,99820.94
2022-09-14T04:28:50.368Z,99822.44
2022-09-14T04:31:17.026Z,99828.47
2022-09-14T04:33:44.234Z,99832.25
2022-09-14T04:36:13.550Z,99831.13
2022-09-14T04:38:41.448Z,99837.47
2022-09-14T04:41:14.040Z,99837.38
2022-09-14T04:43:41.243Z,99834.31
2022-09-14T04:46:36.377Z,99829.97
2022-09-14T04:49:03.161Z,99831.78
2022-09-14T04:51:31.351Z,99828.69
2022-09-14T04:53:59.363Z,99827.69
2022-09-14T04:56:27.381Z,99826.88
2022-09-14T04:58:56.707Z,99833.03
2022-09-14T05:01:26.115Z,99828.13
2022-09-14T05:03:53.748Z,99829.78
2022-09-14T05:06:25.455Z,99836.84
2022-09-14T05:08:53.587Z,99835.97
2022-09-14T05:11:23.089Z,99838.41
2022-09-14T05:13:50.880Z,99828.13
2022-09-14T05:16:19.737Z,99833.63
2022-09-14T05:18:46.831Z,99834.91
2022-09-14T05:21:15.717Z,99826.75
2022-09-14T05:23:42.547Z,99819.41
2022-09-14T05:26:09.545Z,99823.91
2022-09-14T05:28:36.593Z,99826.84
2022-09-14T05:31:08.279Z,99828.88
2022-09-14T05:33:35.018Z,99828.19
2022-09-14T05:36:02.997Z,99819.31
2022-09-14T05:38:30.908Z,99829.44
2022-09-14T05:40:57.715Z,99825.75
2022-09-14T05:43:24.943Z,99832.94
2022-09-14T05:45:51.927Z,99819.53
2022-09-14T05:48:18.469Z,99824.31
2022-09-14T05:50:46.252Z,99822.16
2022-09-14T05:53:13.058Z,99814.84
2022-09-14T05:55:39.509Z,99817.13
2022-09-14T05:58:05.984Z,99818.03
2022-09-14T06:00:32.462Z,99818.31
2022-09-14T06:02:58.853Z,99817.75
2022-09-14T06:05:25.650Z,99815.72
2022-09-14T06:07:53.620Z,99814.88
2022-09-14T06:10:21.019Z,99814.59
2022-09-14T06:12:48.805Z,99810.97
2022-09-14T06:15:17.497Z,99814.56
2022-09-14T06:17:43.952Z,99814.16
2022-09-14T06:20:10.961Z,99817.19
2022-09-14T06:22:37.401Z,99821.19
2022-09-14T06:25:04.120Z,99821.75
2022-09-14T06:27:30.507Z,99814.72
2022-09-14T06:29:57.052Z,99812.19
2022-09-14T06:32:23.524Z,99818.84
2022-09-14T06:34:50.033Z,99806.78
2022-09-14T06:37:16.494Z,99793.69
2022-09-14T06:39:43.090Z,99803.97
2022-09-14T06:42:09.562Z,99798.84
2022-09-14T06:44:35.964Z,99801.97
2022-09-14T06:47:02.413Z,99799.75
2022-09-14T06:49:29.013Z,99796.69
2022-09-14T06:51:57.407Z,99806.03
2022-09-14T06:54:25.410Z,99806.72
2022-09-14T06:56:51.922Z,99791.25
2022-09-14T06:59:19.165Z,99802.91
2022-09-14T07:01:46.326Z,99812.16
2022-09-14T07:04:14.252Z,99803.97
2022-09-14T07:06:43.377Z,99809.28
2022-09-14T07:09:10.215Z,99808.63
2022-09-14T07:11:37.262Z,99809.78
2022-09-14T07:14:04.083Z,99812.56
2022-09-14T07:16:32.127Z,99808.03
2022-09-14T07:19:01.896Z,99810.25
2022-09-14T07:21:29.317Z,99807.41
2022-09-14T07:23:55.818Z,99805.56
2022-09-14T07:26:24.995Z,99805.78
2022-09-14T07:28:55.476Z,99802.44
2022-09-14T07:31:27.623Z,99804.63
2022-09-14T07:33:56.324Z,99796.41
2022-09-14T07:36:24.884Z,99802.66
2022-09-14T07:38:53.341Z,99798.78
2022-09-14T07:41:25.339Z,99797.78
2022-09-14T07:43:53.945Z,99794.53
2022-09-14T07:46:21.537Z,99798.75
2022-09-14T07:48:49.085Z,99808.53
2022-09-14T07:51:15.927Z,99802.59
2022-09-14T07:53:43.585Z,99794.13
2022-09-14T07:56:11.862Z,99802.59
2022-09-14T07:58:38.951Z,99790.59
2022-09-14T08:01:11.915Z,99798.38
2022-09-14T08:03:43.414Z,99792.50
2022-09-14T08:06:10.684Z,99794.16
2022-09-14T08:08:39.508Z,99792.28
2022-09-14T08:11:11.216Z,99791.44
2022-09-14T08:13:39.987Z,99797.22
2022-09-14T08:16:06.962Z,99795.19
2022-09-14T08:18:35.215Z,99797.81
2022-09-14T08:21:13.268Z,99797.72
2022-09-14T08:23:40.791Z,99777.47
2022-09-14T08:26:09.776Z,99784.47
2022-09-14T08:28:36.496Z,99777.03
2022-09-14T08:31:08.935Z,99780.56
2022-09-14T08:33:37.738Z,99781.41
2022-09-14T08:36:06.290Z,99774.53
2022-09-14T08:38:32.822Z,99771.56
2022-09-14T08:41:09.632Z,99771.31
2022-09-14T08:43:38.730Z,99772.84
2022-09-14T08:46:11.253Z,99776.72
2022-09-14T08:48:45.509Z,99779.06
2022-09-14T08:51:12.025Z,99784.09
2022-09-14T08:53:40.795Z,99773.00
2022-09-14T08:56:18.409Z,99775.91
2022-09-14T08:59:11.144Z,99776.34
2022-09-14T09:01:37.509Z,99768.06
2022-09-14T09:04:21.929Z,99770.13
2022-09-14T09:07:13.049Z,99770.69
2022-09-14T09:09:47.373Z,99766.47
2022-09-14T09:12:29.852Z,99771.88
2022-09-14T09:15:17.302Z,99767.28
2022-09-14T09:17:48.386Z,99764.91
2022-09-14T09:20:26.859Z,99761.53
2022-09-14T09:23:28.168Z,99756.47
2022-09-14T09:26:03.736Z,99750.56
2022-09-14T09:28:30.901Z,99743.88
2022-09-14T09:31:05.144Z,99740.75
2022-09-14T09:33:32.025Z,99735.63
2022-09-14T09:35:59.474Z,99734.25
2022-09-14T09:38:28.592Z,99739.00
2022-09-14T09:41:05.862Z,99732.69
2022-09-14T09:43:49.288Z,99743.91
2022-09-14T09:46:17.219Z,99741.53
2022-09-14T09:48:45.570Z,99735.31
2022-09-14T09:51:24.275Z,99740.88
2022-09-14T09:53:54.130Z,99725.66
2022-09-14T09:56:24.041Z,99731.25
2022-09-14T09:58:52.058Z,99723.91
2022-09-14T10:01:35.758Z,99720.75
2022-09-14T10:04:25.456Z,99714.50
2022-09-14T10:06:55.874Z,99704.28
2022-09-14T10:09:26.976Z,99702.19
2022-09-14T10:12:04.922Z,99698.75
2022-09-14T10:14:34.380Z,99691.81
2022-09-14T10:17:22.038Z,99691.19
2022-09-14T10:19:52.276Z,99687.94
2022-09-14T10:22:26.750Z,99684.97
2022-09-14T10:25:13.235Z,99695.06
2022-09-14T10:28:00.407Z,99699.63
2022-09-14T10:31:11.676Z,99695.09
2022-09-14T10:33:38.727Z,99703.44
2022-09-14T10:36:19.251Z,99719.59
2022-09-14T10:38:55.106Z,99713.06
2022-09-14T10:41:27.143Z,99714.22
2022-09-14T10:43:53.519Z,99713.53
2022-09-14T10:46:30.725Z,99701.69
2022-09-14T10:49:37.948Z,99709.16
2022-09-14T10:52:43.555Z,99702.03
2022-09-14T10:55:24.468Z,99696.06
2022-09-14T10:58:24.661Z,99691.66
2022-09-14T11:01:08.684Z,99691.56
2022-09-14T11:03:53.176Z,99692.69
2022-09-14T11:06:38.012Z,99692.59
2022-09-14T11:09:20.364Z,99678.91
2022-09-14T11:12:08.644Z,99683.38
2022-09-14T11:14:53.637Z,99680.69
2022-09-14T11:17:26.104Z,99672.09
2022-09-14T11:20:21.009Z,99672.94
2022-09-14T11:22:47.362Z,99676.09
2022-09-14T11:25:36.378Z,99666.97
2022-09-14T11:28:14.124Z,99666.56
2022-09-14T11:30:50.774Z,99670.44
2022-09-14T11:33:31.369Z,99668.78
2022-09-14T11:36:07.277Z,99673.25
2022-09-14T11:38:48.137Z,99671.09
2022-09-14T11:41:24.105Z,99668.00
2022-09-14T11:44:02.659Z,99670.09
2022-09-14T11:46:45.059Z,99671.53
2022-09-14T11:49:55.129Z,99661.78
2022-09-14T11:52:24.570Z,99661.94
2022-09-14T11:54:52.238Z,99661.41
2022-09-14T11:57:23.034Z,99658.56
2022-09-14T12:00:23.774Z,99651.53
2022-09-14T12:03:02.473Z,99655.41
2022-09-14T12:05:32.488Z,99652.28
2022-09-14T12:08:04.522Z,99656.28
2022-09-14T12:10:31.153Z,99666.06
2022-09-14T12:13:06.480Z,99672.69
2022-09-14T12:15:43.428Z,99671.53
2022-09-14T12:18:09.998Z,99670.72
2022-09-14T12:20:52.761Z,99659.22
2022-09-14T12:23:37.224Z,99663.16
2022-09-14T12:26:06.691Z,99656.16
2022-09-14T12:28:50.265Z,99652.34
2022-09-14T12:31:32.892Z,99642.66
2022-09-14T12:34:23.765Z,99657.88
2022-09-14T12:36:50.117Z,99643.75
2022-09-14T12:39:24.154Z,99644.44
2022-09-14T12:41:50.503Z,99635.53
2022-09-14T12:44:39.949Z,99638.22
2022-09-14T12:47:24.830Z,99635.78
2022-09-14T12:49:57.681Z,99637.81
2022-09-14T12:52:32.382Z,99642.47
2022-09-14T12:55:28.035Z,99632.53
2022-09-14T12:58:00.087Z,99633.94
2022-09-14T13:00:29.846Z,99641.97
2022-09-14T13:03:23.600Z,99635.03
2022-09-14T13:05:50.962Z,99627.13
2022-09-14T13:08:23.341Z,99629.00
2022-09-14T13:10:51.835Z,99620.03
2022-09-14T13:13:22.121Z,99622.31
2022-09-14T13:15:58.526Z,99622.50
2022-09-14T13:18:34.977Z,99622.94
2022-09-14T13:21:14.369Z,99630.41
2022-09-14T13:23:42.348Z,99623.97
2022-09-14T13:26:16.813Z,99629.38
2022-09-14T13:28:45.853Z,99615.63
2022-09-14T13:31:16.812Z,99607.97
2022-09-14T13:33:48.902Z,99614.03
2022-09-14T13:36:18.873Z,99607.34
2022-09-14T13:38:45.766Z,99612.75
2022-09-14T13:41:22.156Z,99609.75
2022-09-14T13:43:51.071Z,99609.38
2022-09-14T13:46:20.450Z,99608.22
2022-09-14T13:48:47.700Z,99602.13
2022-09-14T13:51:15.293Z,99597.53
2022-09-14T13:53:49.988Z,99603.59
2022-09-14T13:56:25.103Z,99603.97
2022-09-14T13:59:13.951Z,99596.88
2022-09-14T14:01:46.558Z,99599.13
2022-09-14T14:04:36.882Z,99590.56
2022-09-14T14:07:12.268Z,99586.78
2022-09-14T14:09:50.604Z,99592.91
2022-09-14T14:12:27.678Z,99594.56
2022-09-14T14:15:01.626Z,99589.78
2022-09-14T14:17:27.993Z,99578.72
2022-09-14T14:20:00.270Z,99578.19
2022-09-14T14:22:33.191Z,99583.78
2022-09-14T14:25:15.773Z,99578.09
2022-09-14T14:27:44.773Z,99570.78
2022-09-14T14:30:17.927Z,99565.16
2022-09-14T14:32:48.927Z,99566.38
2022-09-14T14:35:17.817Z,99556.03
2022-09-14T14:37:44.257Z,99564.25
2022-09-14T14:40:13.707Z,99561.38
2022-09-14T14:42:41.054Z,99561.53
2022-09-14T14:45:14.402Z,99560.31
2022-09-14T14:47:41.088Z,99555.59
2022-09-14T14:50:16.590Z,99552.41
2022-09-14T14:52:43.173Z,99553.34
2022-09-14T14:55:10.548Z,99543.63
2022-09-14T14:57:38.887Z,99539.00
2022-09-14T15:00:15.491Z,99537.59
2022-09-14T15:02:42.567Z,99540.50
2022-09-14T15:05:10.017Z,99538.84
2022-09-14T15:07:37.863Z,99537.13
2022-09-14T15:10:05.625Z,99535.19
2022-09-14T15:12:32.472Z,99532.50
2022-09-14T15:14:59.034Z,99534.22
2022-09-14T15:17:25.637Z,99530.06
2022-09-14T15:19:52.563Z,99536.38
2022-09-14T15:22:19.078Z,99532.50
2022-09-14T15:24:45.555Z,99525.22
2022-09-14T15:27:12.026Z,99526.78
2022-09-14T15:29:38.410Z,99526.53
2022-09-14T15:32:05.144Z,99528.31
2022-09-14T15:34:31.587Z,99526.81
2022-09-14T15:36:58.870Z,99528.03
2022-09-14T15:39:27.972Z,99526.28
2022-09-14T15:41:55.669Z,99522.44
2022-09-14T15:44:22.837Z,99518.44
2022-09-14T15:46:49.700Z,99508.59
2022-09-14T15:49:19.507Z,99507.28
2022-09-14T15:51:50.346Z,99512.59
2022-09-14T15:54:24.455Z,99514.72
2022-09-14T15:56:54.402Z,99519.13
2022-09-14T15:59:22.143Z,99523.25
2022-09-14T16:01:49.207Z,99515.13
2022-09-14T16:04:16.275Z,99510.47
2022-09-14T16:06:42.657Z,99508.25
2022-09-14T16:09:10.736Z,99514.09
2022-09-14T16:11:38.640Z,99512.91
2022-09-14T16:14:06.814Z,99506.56
2022-09-14T16:16:35.011Z,99505.81
2022-09-14T16:19:06.095Z,99504.78
2022-09-14T16:21:32.903Z,99516.34
2022-09-14T16:24:01.769Z,99518.38
2022-09-14T16:26:32.236Z,99517.38
2022-09-14T16:28:59.245Z,99515.69
2022-09-14T16:31:35.295Z,99517.69
2022-09-14T16:34:08.057Z,99511.13
2022-09-14T16:36:37.128Z,99513.88
2022-09-14T16:39:06.349Z,99516.63
2022-09-14T16:41:32.892Z,99516.16
2022-09-14T16:44:01.644Z,99506.41
2022-09-14T16:46:30.086Z,99520.72
2022-09-14T16:48:58.580Z,99513.94
2022-09-14T16:51:27.242Z,99528.84
2022-09-14T16:53:53.907Z,99529.25
2022-09-14T16:56:23.019Z,99533.06
2022-09-14T16:58:51.775Z,99529.56
2022-09-14T17:01:25.763Z,99526.53
2022-09-14T17:03:53.804Z,99522.13
2022-09-14T17:06:22.604Z,99522.75
2022-09-14T17:08:49.822Z,99512.91
2022-09-14T17:11:16.981Z,99511.78
2022-09-14T17:13:44.430Z,99507.69
2022-09-14T17:16:13.913Z,99519.19
2022-09-14T17:18:41.871Z,99511.34
2022-09-14T17:21:11.162Z,99504.81
2022-09-14T17:23:37.729Z,99500.66
2022-09-14T17:26:06.079Z,99501.66
2022-09-14T17:28:34.841Z,99505.25
2022-09-14T17:31:02.796Z,99504.97
2022-09-14T17:33:30.023Z,99505.03
2022-09-14T17:35:58.418Z,99497.47
2022-09-14T17:38:27.605Z,99508.22
2022-09-14T17:41:04.838Z,99507.06
2022-09-14T17:43:32.568Z,99504.38
2022-09-14T17:45:59.455Z,99509.38
2022-09-14T17:48:27.724Z,99496.88
2022-09-14T17:50:54.987Z,99494.34
2022-09-14T17:53:21.450Z,99493.81
2022-09-14T17:55:48.169Z,99491.94
2022-09-14T17:58:19.436Z,99495.25
2022-09-14T18:00:46.272Z,99507.38
2022-09-14T18:03:12.897Z,99507.69
2022-09-14T18:05:39.377Z,99500.22
2022-09-14T18:08:05.816Z,99510.22
2022-09-14T18:10:32.230Z,99503.13
2022-09-14T18:12:58.639Z,99497.22
2022-09-14T18:15:25.093Z,99500.47
2022-09-14T18:17:52.289Z,99515.09
2022-09-14T18:20:18.810Z,99514.56
2022-09-14T18:22:45.213Z,99519.84
2022-09-14T18:25:11.619Z,99522.00
2022-09-14T18:27:38.039Z,99522.53
2022-09-14T18:30:05.059Z,99517.16
2022-09-14T18:32:31.429Z,99511.59
2022-09-14T18:34:57.883Z,99520.03
2022-09-14T18:37:24.314Z,99515.09
2022-09-14T18:39:50.819Z,99521.06
2022-09-14T18:42:17.251Z,99528.28
2022-09-14T18:44:43.811Z,99528.81
2022-09-14T18:47:10.184Z,99528.09
2022-09-14T18:49:36.596Z,99522.91
2022-09-14T18:52:03.086Z,99526.97
2022-09-14T18:54:29.996Z,99535.72
2022-09-14T18:56:56.401Z,99537.13
2022-09-14T18:59:22.856Z,99539.25
2022-09-14T19:01:49.271Z,99547.84
2022-09-14T19:04:15.841Z,99538.97
2022-09-14T19:06:44.306Z,99558.78
2022-09-14T19:09:11.019Z,99552.38
2022-09-14T19:11:37.504Z,99544.16
2022-09-14T19:14:09.871Z,99549.53
2022-09-14T19:16:39.018Z,99549.78
2022-09-14T19:19:06.685Z,99544.84
2022-09-14T19:21:33.435Z,99549.41
2022-09-14T19:24:00.874Z,99558.13
2022-09-14T19:26:32.891Z,99558.31
2022-09-14T19:29:01.016Z,99552.78
2022-09-14T19:31:30.347Z,99545.41
2022-09-14T19:33:58.472Z,99549.94
2022-09-14T19:36:25.188Z,99554.81
2022-09-14T19:38:53.495Z,99560.53
2022-09-14T19:41:21.699Z,99563.22
2022-09-14T19:43:48.309Z,99560.84
2022-09-14T19:46:18.246Z,99554.78
2022-09-14T19:48:46.109Z,99553.13
2022-09-14T19:51:15.499Z,99553.97
2022-09-14T19:53:42.726Z,99561.03
2022-09-14T19:56:12.626Z,99562.69
2022-09-14T19:58:46.858Z,99559.53
2022-09-14T20:01:15.127Z,99558.84
2022-09-14T20:03:43.192Z,99561.84
2022-09-14T20:06:19.020Z,99567.91
2022-09-14T20:08:46.833Z,99563.38
2022-09-14T20:11:19.194Z,99568.09
2022-09-14T20:13:48.634Z,99566.56
2022-09-14T20:16:17.732Z,99564.22
2022-09-14T20:18:45.518Z,99568.38
2022-09-14T20:21:16.087Z,99570.22
2022-09-14T20:23:58.258Z,99573.75
2022-09-14T20:26:30.307Z,99578.63
2022-09-14T20:28:59.866Z,99587.03
2022-09-14T20:31:26.961Z,99577.63
2022-09-14T20:33:53.380Z,99586.69
2022-09-14T20:36:21.544Z,99583.63
2022-09-14T20:38:54.383Z,99577.47
2022-09-14T20:41:23.343Z,99573.59
2022-09-14T20:43:50.050Z,99578.44
2022-09-14T20:46:19.933Z,99579.63
2022-09-14T20:48:48.095Z,99576.25
2022-09-14T20:51:19.950Z,99588.00
2022-09-14T20:53:47.620Z,99583.47
2022-09-14T20:56:17.550Z,99585.97
2022-09-14T20:58:44.568Z,99594.03
2022-09-14T21:01:22.692Z,99589.00
2022-09-14T21:03:50.368Z,99585.63
2022-09-14T21:06:24.623Z,99588.31
2022-09-14T21:08:51.513Z,99590.16
2022-09-14T21:11:21.808Z,99590.34
2022-09-14T21:13:49.412Z,99585.94
2022-09-14T21:16:18.486Z,99587.47
2022-09-14T21:18:47.005Z,99591.13
2022-09-14T21:21:15.765Z,99587.25
2022-09-14T21:23:42.989Z,99593.31
2022-09-14T21:26:11.159Z,99601.19
2022-09-14T21:28:39.729Z,99602.69
2022-09-14T21:31:16.085Z,99600.31
2022-09-14T21:33:44.591Z,99598.81
2022-09-14T21:36:17.629Z,99596.66
2022-09-14T21:38:51.118Z,99589.28
2022-09-14T21:41:18.867Z,99603.63
2022-09-14T21:43:45.755Z,99595.72
2022-09-14T21:46:12.197Z,99594.22
2022-09-14T21:48:39.016Z,99601.28
2022-09-14T21:51:17.320Z,99600.66
2022-09-14T21:53:49.562Z,99597.53
2022-09-14T21:56:17.356Z,99591.25
2022-09-14T21:58:44.028Z,99591.09
2022-09-14T22:01:11.948Z,99594.50
2022-09-14T22:03:38.922Z,99596.19
2022-09-14T22:06:07.818Z,99587.06
2022-09-14T22:08:35.375Z,99593.63
2022-09-14T22:11:14.448Z,99587.94
2022-09-14T22:13:41.761Z,99582.84
2022-09-14T22:16:13.792Z,99593.47
2022-09-14T22:18:48.818Z,99585.41
2022-09-14T22:21:16.194Z,99582.53
2022-09-14T22:23:43.142Z,99583.38
2022-09-14T22:26:11.935Z,99581.06
2022-09-14T22:28:40.747Z,99589.69
2022-09-14T22:31:08.511Z,99585.72
2022-09-14T22:33:35.375Z,99586.91
2022-09-14T22:36:03.754Z,99577.34
2022-09-14T22:38:33.542Z,99582.19
2022-09-14T22:41:05.017Z,99578.00
2022-09-14T22:43:32.897Z,99574.00
2022-09-14T22:45:59.755Z,99569.50
2022-09-14T22:48:26.484Z,99572.31
2022-09-14T22:50:55.515Z,99568.31
2022-09-14T22:53:23.414Z,99570.63
2022-09-14T22:55:50.768Z,99570.63
2022-09-14T22:58:19.250Z,99575.69
2022-09-14T23:00:46.549Z,99571.47
2022-09-14T23:03:14.594Z,99568.44
2022-09-14T23:05:48.936Z,99578.00
2022-09-14T23:08:15.927Z,99569.91
2022-09-14T23:10:42.402Z,99567.22
2022-09-14T23:13:08.753Z,99568.88
2022-09-14T23:15:39.419Z,99569.41
2022-09-14T23:18:06.456Z,99572.56
2022-09-14T23:20:39.677Z,99567.00
2022-09-14T23:23:06.599Z,99567.50
2022-09-14T23:25:45.123Z,99569.00
2022-09-14T23:28:12.545Z,99573.66
2022-09-14T23:30:39.658Z,99570.41
2022-09-14T23:33:06.625Z,99574.13
2022-09-14T23:35:37.470Z,99570.59
2022-09-14T23:38:04.195Z,99569.75
2022-09-14T23:40:30.632Z,99575.41
2022-09-14T23:42:57.179Z,99572.06
2022-09-14T23:45:23.571Z,99571.75
2022-09-14T23:47:49.990Z,99576.69
2022-09-14T23:50:16.547Z,99574.00
2022-09-14T23:52:42.932Z,99579.91
2022-09-14T23:55:09.487Z,99569.94
2022-09-14T23:57:36.637Z,99568.91
